createdAt,value
2022-09-17T00:03:52.152Z,92.80
2022-09-17T00:08:51.562Z,92.90
2022-09-17T00:13:50.639Z,92.90
2022-09-17T00:18:49.708Z,92.70
2022-09-17T00:23:48.588Z,92.60
2022-09-17T00:28:48.992Z,92.40
2022-09-17T00:33:48.444Z,92.40
2022-09-17T00:38:47.567Z,92.40
2022-09-17T00:43:46.579Z,92.40
2022-09-17T00:48:45.887Z,92.40
2022-09-17T00:53:44.498Z,92.70
2022-09-17T00:58:43.916Z,92.90
2022-09-17T01:03:42.529Z,93.30
2022-09-17T01:08:41.424Z,94.50
2022-09-17T01:13:40.412Z,95.40
2022-09-17T01:18:39.412Z,96.20
2022-09-17T01:23:38.615Z,96.60
2022-09-17T01:28:37.432Z,96.90
2022-09-17T01:33:37.735Z,97.00
2022-09-17T01:38:36.551Z,97.20
2022-09-17T01:43:35.563Z,97.00
2022-09-17T01:48:34.575Z,97.00
2022-09-17T01:53:33.619Z,97.10
2022-09-17T01:58:32.496Z,96.90
2022-09-17T02:03:31.514Z,96.90
2022-09-17T02:08:30.556Z,96.80
2022-09-17T02:13:29.555Z,96.90
2022-09-17T02:18:28.525Z,97.00
2022-09-17T02:23:27.552Z,97.00
2022-09-17T02:28:26.565Z,97.10
2022-09-17T02:33:25.547Z,97.20
2022-09-17T02:38:24.563Z,97.50
2022-09-17T02:43:23.584Z,97.60
2022-09-17T02:48:22.584Z,97.80
2022-09-17T02:53:21.828Z,97.80
2022-09-17T02:58:20.904Z,97.80
2022-09-17T03:03:19.733Z,97.70
2022-09-17T03:08:19.828Z,97.70
2022-09-17T03:13:19.651Z,97.60
2022-09-17T03:18:18.627Z,97.70
2022-09-17T03:23:17.604Z,97.70
2022-09-17T03:28:16.604Z,97.70
2022-09-17T03:33:16.130Z,97.60
2022-09-17T03:38:14.705Z,97.50
2022-09-17T03:43:13.539Z,97.60
2022-09-17T03:48:12.655Z,97.60
2022-09-17T03:53:11.668Z,97.50
2022-09-17T03:58:10.739Z,97.60
2022-09-17T04:03:09.700Z,97.70
2022-09-17T04:08:08.737Z,97.70
2022-09-17T04:13:07.711Z,97.60
2022-09-17T04:18:06.729Z,97.70
2022-09-17T04:23:06.842Z,97.40
2022-09-17T04:28:05.536Z,97.50
2022-09-17T04:33:04.792Z,97.30
2022-09-17T04:38:03.793Z,97.30
2022-09-17T04:43:03.700Z,97.40
2022-09-17T04:48:02.637Z,97.40
2022-09-17T04:53:01.867Z,97.50
2022-09-17T04:58:00.657Z,97.50
2022-09-17T05:02:59.696Z,97.40
2022-09-17T05:07:58.677Z,97.30
2022-09-17T05:12:57.734Z,97.40
2022-09-17T05:17:56.810Z,97.60
2022-09-17T05:22:55.732Z,97.70
2022-09-17T05:27:55.845Z,97.80
2022-09-17T05:32:54.773Z,97.70
2022-09-17T05:37:53.646Z,97.60
2022-09-17T05:42:52.977Z,97.40
2022-09-17T05:47:51.985Z,97.40
2022-09-17T05:52:50.821Z,97.30
2022-09-17T05:57:49.817Z,97.40
2022-09-17T06:02:49.590Z,96.90
2022-09-17T06:07:48.689Z,96.40
2022-09-17T06:12:47.688Z,96.10
2022-09-17T06:17:46.985Z,95.80
2022-09-17T06:22:45.741Z,95.90
2022-09-17T06:27:44.628Z,95.80
2022-09-17T06:32:44.062Z,95.10
2022-09-17T06:37:42.733Z,95.00
2022-09-17T06:42:42.148Z,95.40
2022-09-17T06:47:40.772Z,95.50
2022-09-17T06:52:40.064Z,95.40
2022-09-17T06:57:39.065Z,95.50
2022-09-17T07:02:37.848Z,95.40
2022-09-17T07:07:37.727Z,95.30
2022-09-17T07:12:36.889Z,95.30
2022-09-17T07:17:35.933Z,95.00
2022-09-17T07:22:34.677Z,94.40
2022-09-17T07:27:34.329Z,94.60
2022-09-17T07:32:33.736Z,94.50
2022-09-17T07:37:32.731Z,94.50
2022-09-17T07:42:33.048Z,93.60
2022-09-17T07:47:32.673Z,93.40
2022-09-17T07:52:32.005Z,93.30
2022-09-17T07:57:30.812Z,93.10
2022-09-17T08:02:29.922Z,91.90
2022-09-17T08:07:29.177Z,91.60
2022-09-17T08:12:27.761Z,91.10
2022-09-17T08:17:27.224Z,89.60
2022-09-17T08:22:26.532Z,89.00
2022-09-17T08:27:26.365Z,86.40
2022-09-17T08:32:25.902Z,85.80
2022-09-17T08:37:25.100Z,84.50
2022-09-17T08:42:23.920Z,83.50
2022-09-17T08:47:22.931Z,83.10
2022-09-17T08:52:21.996Z,81.90
2022-09-17T08:57:20.955Z,79.30
2022-09-17T09:02:20.385Z,79.00
2022-09-17T09:07:19.917Z,79.10
2022-09-17T09:12:19.132Z,76.30
2022-09-17T09:17:18.077Z,73.30
2022-09-17T09:22:16.814Z,70.40
2022-09-17T09:27:16.497Z,71.10
2022-09-17T09:32:16.950Z,71.20
2022-09-17T09:37:15.802Z,69.50
2022-09-17T09:42:15.443Z,69.10
2022-09-17T09:47:15.095Z,68.60
2022-09-17T09:52:13.814Z,68.60
2022-09-17T09:57:13.311Z,68.50
2022-09-17T10:02:12.108Z,66.80
2022-09-17T10:07:10.967Z,65.40
2022-09-17T10:12:10.513Z,65.30
2022-09-17T10:17:09.876Z,62.60
2022-09-17T10:22:08.808Z,62.00
2022-09-17T10:27:07.900Z,63.50
2022-09-17T10:32:08.219Z,63.80
2022-09-17T10:37:06.748Z,62.00
2022-09-17T10:42:05.860Z,65.90
2022-09-17T10:47:05.067Z,66.40
2022-09-17T10:52:03.884Z,67.70
2022-09-17T10:57:02.909Z,67.00
2022-09-17T11:02:02.100Z,64.20
2022-09-17T11:07:01.019Z,63.50
2022-09-17T11:11:59.915Z,62.80
2022-09-17T11:16:58.856Z,63.20
2022-09-17T11:21:57.858Z,60.90
2022-09-17T11:26:56.875Z,64.40
2022-09-17T11:31:56.579Z,64.90
2022-09-17T11:36:56.341Z,62.30
2022-09-17T11:41:55.417Z,60.80
2022-09-17T11:46:54.222Z,62.10
2022-09-17T11:51:53.309Z,61.10
2022-09-17T11:56:51.954Z,60.80
2022-09-17T12:01:51.110Z,60.30
2022-09-17T12:06:50.626Z,61.10
2022-09-17T12:11:50.261Z,58.10
2022-09-17T12:16:49.232Z,61.10
2022-09-17T12:21:48.678Z,64.10
2022-09-17T12:26:48.773Z,65.30
2022-09-17T12:31:47.948Z,66.50
2022-09-17T12:36:48.821Z,65.90
2022-09-17T12:41:49.848Z,64.60
2022-09-17T12:46:48.969Z,64.50
2022-09-17T12:51:47.919Z,71.60
2022-09-17T12:56:46.827Z,85.00
2022-09-17T13:01:46.597Z,88.50
2022-09-17T13:06:46.015Z,90.50
2022-09-17T13:11:45.868Z,90.80
2022-09-17T13:16:44.988Z,91.90
2022-09-17T13:21:43.858Z,91.50
2022-09-17T13:26:44.924Z,90.80
2022-09-17T13:31:44.274Z,91.30
2022-09-17T13:36:43.017Z,84.60
2022-09-17T13:41:42.111Z,82.50
2022-09-17T13:46:41.070Z,80.10
2022-09-17T13:51:39.863Z,81.10
2022-09-17T13:56:39.109Z,78.10
2022-09-17T14:01:38.121Z,74.00
2022-09-17T14:06:36.847Z,74.60
2022-09-17T14:11:35.946Z,68.40
2022-09-17T14:16:39.962Z,67.50
2022-09-17T14:21:39.003Z,71.40
2022-09-17T14:26:37.963Z,85.60
2022-09-17T14:31:37.060Z,93.20
2022-09-17T14:36:36.143Z,97.00
2022-09-17T14:41:35.359Z,99.80
2022-09-17T14:46:33.940Z,99.90
2022-09-17T14:51:32.917Z,99.90
2022-09-17T14:56:31.916Z,99.90
2022-09-17T15:01:31.037Z,99.90
2022-09-17T15:06:30.231Z,99.90
2022-09-17T15:11:29.175Z,99.90
2022-09-17T15:16:30.389Z,99.90
2022-09-17T15:21:30.045Z,99.90
2022-09-17T15:26:29.089Z,99.90
2022-09-17T15:31:28.156Z,98.60
2022-09-17T15:36:27.249Z,97.50
2022-09-17T15:41:26.534Z,97.10
2022-09-17T15:46:26.512Z,96.60
2022-09-17T15:51:26.042Z,97.00
2022-09-17T15:56:25.078Z,95.70
2022-09-17T16:01:24.033Z,95.40
2022-09-17T16:06:25.482Z,93.70
2022-09-17T16:11:24.067Z,92.30
2022-09-17T16:16:23.241Z,91.40
2022-09-17T16:21:22.145Z,89.80
2022-09-17T16:26:21.128Z,90.90
2022-09-17T16:31:20.154Z,90.40
2022-09-17T16:36:19.116Z,90.10
2022-09-17T16:41:18.036Z,88.10
2022-09-17T16:46:17.422Z,85.60
2022-09-17T16:51:16.057Z,84.50
2022-09-17T16:56:15.309Z,84.60
2022-09-17T17:01:14.227Z,82.80
2022-09-17T17:06:14.422Z,83.90
2022-09-17T17:11:13.047Z,85.40
2022-09-17T17:16:12.282Z,85.50
2022-09-17T17:21:11.144Z,87.80
2022-09-17T17:26:10.070Z,90.00
2022-09-17T17:31:09.488Z,90.40
2022-09-17T17:36:08.748Z,91.30
2022-09-17T17:41:08.263Z,91.90
2022-09-17T17:46:07.271Z,92.30
2022-09-17T17:51:06.195Z,92.60
2022-09-17T17:56:05.992Z,92.90
2022-09-17T18:01:05.152Z,93.40
2022-09-17T18:06:04.226Z,93.70
2022-09-17T18:11:03.849Z,94.00
2022-09-17T18:16:03.538Z,94.10
2022-09-17T18:21:02.258Z,94.40
2022-09-17T18:26:01.058Z,94.80
2022-09-17T18:31:00.182Z,95.00
2022-09-17T18:35:59.265Z,95.20
2022-09-17T18:40:58.282Z,95.50
2022-09-17T18:45:57.281Z,95.70
2022-09-17T18:50:56.658Z,96.00
2022-09-17T18:55:55.306Z,96.10
2022-09-17T19:00:54.370Z,96.40
2022-09-17T19:05:53.325Z,96.50
2022-09-17T19:10:52.133Z,96.60
2022-09-17T19:15:51.223Z,96.60
2022-09-17T19:20:50.026Z,96.80
2022-09-17T19:25:49.169Z,97.10
2022-09-17T19:30:48.217Z,97.20
2022-09-17T19:35:49.081Z,97.30
2022-09-17T19:40:48.263Z,97.40
2022-09-17T19:45:47.061Z,97.20
2022-09-17T19:50:46.273Z,94.50
2022-09-17T19:55:45.820Z,91.90
2022-09-17T20:00:45.129Z,90.70
2022-09-17T20:05:44.130Z,87.80
2022-09-17T20:10:43.672Z,87.50
2022-09-17T20:15:42.187Z,86.60
2022-09-17T20:20:41.447Z,86.40
2022-09-17T20:25:40.072Z,85.70
2022-09-17T20:30:39.506Z,84.20
2022-09-17T20:35:38.175Z,84.80
2022-09-17T20:40:37.302Z,84.70
2022-09-17T20:45:36.217Z,86.50
2022-09-17T20:50:35.276Z,87.00
2022-09-17T20:55:34.231Z,85.70
2022-09-17T21:00:33.647Z,86.90
2022-09-17T21:05:32.250Z,87.70
2022-09-17T21:10:31.207Z,88.10
2022-09-17T21:15:30.484Z,88.40
2022-09-17T21:20:29.193Z,88.70
2022-09-17T21:25:28.374Z,89.00
2022-09-17T21:30:27.442Z,90.30
2022-09-17T21:35:28.003Z,90.70
2022-09-17T21:40:27.367Z,91.10
2022-09-17T21:45:26.300Z,92.50
2022-09-17T21:50:25.395Z,93.80
2022-09-17T21:55:24.213Z,94.30
2022-09-17T22:00:25.210Z,96.50
2022-09-17T22:05:24.095Z,98.10
2022-09-17T22:10:23.686Z,99.00
2022-09-17T22:15:22.199Z,99.90
2022-09-17T22:20:23.471Z,99.90
2022-09-17T22:25:22.184Z,99.80
2022-09-17T22:30:22.695Z,99.90
2022-09-17T22:35:21.416Z,99.80
2022-09-17T22:40:20.273Z,99.90
2022-09-17T22:45:19.144Z,99.60
2022-09-17T22:50:18.155Z,99.70
2022-09-17T22:55:17.274Z,99.90
2022-09-17T23:00:17.403Z,99.70
2022-09-17T23:05:16.321Z,99.90
2022-09-17T23:10:15.335Z,99.80
2022-09-17T23:15:14.431Z,99.90
2022-09-17T23:20:13.640Z,99.90
2022-09-17T23:25:12.424Z,99.90
2022-09-17T23:30:11.286Z,99.90
2022-09-17T23:35:10.374Z,99.90
2022-09-17T23:40:09.477Z,99.90
2022-09-17T23:45:08.399Z,99.90
2022-09-17T23:50:07.328Z,99.90
2022-09-17T23:55:06.875Z,99.90
